KMVE

Montevideo-Chippewa County Airport

Montevideo, Minnesota, USA
METAR KMVE 170555Z AUTO 00000KT 5SM BR OVC120 M03/M04 A3009 RMK AO2
Observed Flight Rules
Dec-17 @ 05:55 UTC (16 minutes ago) Marginal Visual Flight Rules
Wind Visibility Clouds Conditions
Calm 5 miles
  • Overcast at 12,000' AGL
  • Mist
Temperatures Readings
Current -3°C / 27°F
Dewpoint -4°C / 25°F
Humidity 93%
Altimeter 30.09" Hg
Pressure 1019 hPa
Elevation 315
METAR KMVE 170555Z AUTO 00000KT 5SM BR OVC120 M03/M04 A3009 RMK AO2
Observed Flight Rules
Dec-17 @ 05:55 UTC
(16 minutes ago)
MVFR
Wind Visibility
Calm 5 miles
Clouds
  • Overcast at 12,000' AGL
Conditions
  • Mist
Temperature Dewpoint
-3°C / 27°F -4°C / 25°F
Humidity Altimeter Pressure
93% 30.09" Hg 1019 hPa